Terminal Aerodrome Forecast
Issued by NWS Pocatello, ID

Current Version | Previous Version | Text Only | Print | Product List | Glossary On
Versions: 1 2 3 4 5 6 7 8 9 10 11 12
000
FTUS45 KPIH 250500
TAFIDA
TAF
KIDA 250520Z 2506/2606 VRB06KT P6SM SKC
     FM251200 19011KT P6SM FEW110 SCT200
     FM252000 21018G28KT P6SM SCT110 BKN200
     FM260200 21015KT P6SM OVC110=

USA.gov is the U.S. government's official web portal to all federal, state and local government web resources and services.